sensor_id;sensor_type;location;lat;lon;timestamp;P1;durP1;ratioP1;P2;durP2;ratioP2
40717;SDS011;26405;51.850;-2.246;2023-05-07T00:05:13;20.52;;;9.20;;
40717;SDS011;26405;51.850;-2.246;2023-05-07T00:07:38;22.60;;;10.50;;
40717;SDS011;26405;51.850;-2.246;2023-05-07T00:10:04;22.13;;;8.85;;
40717;SDS011;26405;51.850;-2.246;2023-05-07T00:12:29;23.05;;;10.48;;
40717;SDS011;26405;51.850;-2.246;2023-05-07T00:14:59;20.42;;;8.93;;
40717;SDS011;26405;51.850;-2.246;2023-05-07T00:17:24;20.83;;;9.45;;
40717;SDS011;26405;51.850;-2.246;2023-05-07T00:19:49;22.83;;;11.13;;
40717;SDS011;26405;51.850;-2.246;2023-05-07T00:22:14;22.70;;;10.18;;
40717;SDS011;26405;51.850;-2.246;2023-05-07T00:24:40;20.45;;;10.05;;
40717;SDS011;26405;51.850;-2.246;2023-05-07T00:27:05;23.05;;;11.10;;
40717;SDS011;26405;51.850;-2.246;2023-05-07T00:29:30;23.73;;;11.88;;
40717;SDS011;26405;51.850;-2.246;2023-05-07T00:31:56;25.60;;;11.90;;
40717;SDS011;26405;51.850;-2.246;2023-05-07T00:34:21;22.77;;;11.15;;
40717;SDS011;26405;51.850;-2.246;2023-05-07T00:36:47;21.20;;;10.48;;
40717;SDS011;26405;51.850;-2.246;2023-05-07T00:39:12;25.92;;;12.48;;
40717;SDS011;26405;51.850;-2.246;2023-05-07T00:41:37;26.20;;;11.60;;
40717;SDS011;26405;51.850;-2.246;2023-05-07T00:44:03;22.63;;;11.85;;
40717;SDS011;26405;51.850;-2.246;2023-05-07T00:46:28;24.65;;;10.18;;
40717;SDS011;26405;51.850;-2.246;2023-05-07T00:48:55;22.60;;;10.50;;
40717;SDS011;26405;51.850;-2.246;2023-05-07T00:51:21;23.98;;;10.95;;
40717;SDS011;26405;51.850;-2.246;2023-05-07T00:53:46;22.67;;;11.57;;
40717;SDS011;26405;51.850;-2.246;2023-05-07T00:56:12;24.52;;;11.95;;
40717;SDS011;26405;51.850;-2.246;2023-05-07T00:58:37;23.38;;;11.60;;
40717;SDS011;26405;51.850;-2.246;2023-05-07T01:01:03;27.23;;;11.90;;
40717;SDS011;26405;51.850;-2.246;2023-05-07T01:03:28;25.73;;;11.23;;
40717;SDS011;26405;51.850;-2.246;2023-05-07T01:05:53;22.08;;;11.13;;
40717;SDS011;26405;51.850;-2.246;2023-05-07T01:08:19;23.83;;;11.75;;
40717;SDS011;26405;51.850;-2.246;2023-05-07T01:10:45;24.10;;;12.07;;
40717;SDS011;26405;51.850;-2.246;2023-05-07T01:13:11;31.70;;;12.27;;
40717;SDS011;26405;51.850;-2.246;2023-05-07T01:15:37;26.93;;;11.97;;
40717;SDS011;26405;51.850;-2.246;2023-05-07T01:18:03;26.40;;;11.82;;
40717;SDS011;26405;51.850;-2.246;2023-05-07T01:20:28;26.27;;;12.82;;
40717;SDS011;26405;51.850;-2.246;2023-05-07T01:22:56;29.83;;;12.65;;
40717;SDS011;26405;51.850;-2.246;2023-05-07T01:25:22;25.67;;;12.52;;
40717;SDS011;26405;51.850;-2.246;2023-05-07T01:27:47;32.25;;;13.15;;
40717;SDS011;26405;51.850;-2.246;2023-05-07T01:30:13;28.65;;;10.75;;
40717;SDS011;26405;51.850;-2.246;2023-05-07T01:32:43;24.40;;;11.70;;
40717;SDS011;26405;51.850;-2.246;2023-05-07T01:35:10;22.42;;;10.98;;
40717;SDS011;26405;51.850;-2.246;2023-05-07T01:40:01;21.00;;;9.32;;
40717;SDS011;26405;51.850;-2.246;2023-05-07T01:42:27;25.02;;;11.50;;
40717;SDS011;26405;51.850;-2.246;2023-05-07T01:44:52;24.02;;;10.43;;
40717;SDS011;26405;51.850;-2.246;2023-05-07T01:47:18;22.17;;;10.70;;
40717;SDS011;26405;51.850;-2.246;2023-05-07T01:49:44;22.40;;;10.48;;
40717;SDS011;26405;51.850;-2.246;2023-05-07T01:52:10;26.20;;;9.40;;
40717;SDS011;26405;51.850;-2.246;2023-05-07T01:54:35;29.75;;;10.20;;
40717;SDS011;26405;51.850;-2.246;2023-05-07T01:57:00;21.88;;;8.32;;
40717;SDS011;26405;51.850;-2.246;2023-05-07T01:59:26;22.70;;;9.40;;
40717;SDS011;26405;51.850;-2.246;2023-05-07T02:01:51;19.63;;;9.00;;
40717;SDS011;26405;51.850;-2.246;2023-05-07T02:04:17;20.50;;;8.88;;
40717;SDS011;26405;51.850;-2.246;2023-05-07T02:06:42;19.73;;;8.93;;
40717;SDS011;26405;51.850;-2.246;2023-05-07T02:09:07;23.40;;;9.82;;
40717;SDS011;26405;51.850;-2.246;2023-05-07T02:11:34;21.13;;;10.10;;
40717;SDS011;26405;51.850;-2.246;2023-05-07T02:13:59;20.05;;;9.68;;
40717;SDS011;26405;51.850;-2.246;2023-05-07T02:16:24;22.60;;;9.38;;
40717;SDS011;26405;51.850;-2.246;2023-05-07T02:18:49;22.30;;;11.25;;
40717;SDS011;26405;51.850;-2.246;2023-05-07T02:21:15;24.58;;;12.75;;
40717;SDS011;26405;51.850;-2.246;2023-05-07T02:23:40;24.63;;;11.38;;
40717;SDS011;26405;51.850;-2.246;2023-05-07T02:26:05;24.58;;;12.32;;
40717;SDS011;26405;51.850;-2.246;2023-05-07T02:28:31;27.85;;;13.52;;
40717;SDS011;26405;51.850;-2.246;2023-05-07T02:30:56;23.80;;;12.13;;
40717;SDS011;26405;51.850;-2.246;2023-05-07T02:35:48;22.50;;;10.30;;
40717;SDS011;26405;51.850;-2.246;2023-05-07T02:38:13;21.33;;;10.77;;
40717;SDS011;26405;51.850;-2.246;2023-05-07T02:40:39;23.83;;;10.60;;
40717;SDS011;26405;51.850;-2.246;2023-05-07T02:43:04;20.85;;;9.90;;
40717;SDS011;26405;51.850;-2.246;2023-05-07T02:45:30;21.00;;;10.10;;
40717;SDS011;26405;51.850;-2.246;2023-05-07T02:47:56;21.25;;;9.52;;
40717;SDS011;26405;51.850;-2.246;2023-05-07T02:50:21;21.92;;;8.60;;
40717;SDS011;26405;51.850;-2.246;2023-05-07T02:52:46;22.73;;;9.02;;
40717;SDS011;26405;51.850;-2.246;2023-05-07T02:55:12;20.05;;;8.77;;
40717;SDS011;26405;51.850;-2.246;2023-05-07T02:57:38;19.33;;;8.32;;
40717;SDS011;26405;51.850;-2.246;2023-05-07T03:00:13;21.70;;;9.75;;
40717;SDS011;26405;51.850;-2.246;2023-05-07T03:02:38;19.13;;;8.68;;
40717;SDS011;26405;51.850;-2.246;2023-05-07T03:05:04;23.00;;;9.15;;
40717;SDS011;26405;51.850;-2.246;2023-05-07T03:07:29;20.58;;;9.32;;
40717;SDS011;26405;51.850;-2.246;2023-05-07T03:09:55;22.23;;;9.10;;
40717;SDS011;26405;51.850;-2.246;2023-05-07T03:12:20;21.52;;;9.00;;
40717;SDS011;26405;51.850;-2.246;2023-05-07T03:14:45;23.73;;;8.55;;
40717;SDS011;26405;51.850;-2.246;2023-05-07T03:17:11;20.42;;;8.25;;
40717;SDS011;26405;51.850;-2.246;2023-05-07T03:19:36;18.83;;;8.48;;
40717;SDS011;26405;51.850;-2.246;2023-05-07T03:22:01;19.52;;;8.52;;
40717;SDS011;26405;51.850;-2.246;2023-05-07T03:24:26;20.85;;;8.63;;
40717;SDS011;26405;51.850;-2.246;2023-05-07T03:26:52;18.13;;;8.00;;
40717;SDS011;26405;51.850;-2.246;2023-05-07T03:29:17;17.88;;;8.63;;
40717;SDS011;26405;51.850;-2.246;2023-05-07T03:31:42;21.45;;;8.45;;
40717;SDS011;26405;51.850;-2.246;2023-05-07T03:34:07;21.35;;;8.88;;
40717;SDS011;26405;51.850;-2.246;2023-05-07T03:36:33;21.42;;;8.80;;
40717;SDS011;26405;51.850;-2.246;2023-05-07T03:38:58;18.70;;;8.35;;
40717;SDS011;26405;51.850;-2.246;2023-05-07T03:41:23;18.52;;;7.78;;
40717;SDS011;26405;51.850;-2.246;2023-05-07T03:43:49;20.38;;;8.60;;
40717;SDS011;26405;51.850;-2.246;2023-05-07T03:46:14;18.88;;;7.72;;
40717;SDS011;26405;51.850;-2.246;2023-05-07T03:48:39;19.52;;;8.68;;
40717;SDS011;26405;51.850;-2.246;2023-05-07T03:51:04;16.67;;;7.22;;
40717;SDS011;26405;51.850;-2.246;2023-05-07T03:53:30;18.83;;;7.93;;
40717;SDS011;26405;51.850;-2.246;2023-05-07T03:55:55;19.65;;;8.20;;
40717;SDS011;26405;51.850;-2.246;2023-05-07T03:58:20;20.65;;;8.05;;
40717;SDS011;26405;51.850;-2.246;2023-05-07T04:00:45;19.30;;;8.38;;
40717;SDS011;26405;51.850;-2.246;2023-05-07T04:03:11;19.10;;;8.38;;
40717;SDS011;26405;51.850;-2.246;2023-05-07T04:05:36;18.67;;;8.25;;
40717;SDS011;26405;51.850;-2.246;2023-05-07T04:08:01;21.52;;;8.15;;
40717;SDS011;26405;51.850;-2.246;2023-05-07T04:10:28;18.33;;;7.63;;
40717;SDS011;26405;51.850;-2.246;2023-05-07T04:12:54;19.30;;;8.38;;
40717;SDS011;26405;51.850;-2.246;2023-05-07T04:15:19;16.00;;;6.82;;
40717;SDS011;26405;51.850;-2.246;2023-05-07T04:17:44;18.42;;;7.80;;
40717;SDS011;26405;51.850;-2.246;2023-05-07T04:20:10;19.92;;;7.35;;
40717;SDS011;26405;51.850;-2.246;2023-05-07T04:22:35;16.08;;;6.93;;
40717;SDS011;26405;51.850;-2.246;2023-05-07T04:25:01;16.08;;;6.75;;
40717;SDS011;26405;51.850;-2.246;2023-05-07T04:27:26;18.70;;;6.63;;
40717;SDS011;26405;51.850;-2.246;2023-05-07T04:29:53;16.63;;;6.85;;
40717;SDS011;26405;51.850;-2.246;2023-05-07T04:32:20;17.92;;;6.93;;
40717;SDS011;26405;51.850;-2.246;2023-05-07T04:34:46;14.40;;;6.35;;
40717;SDS011;26405;51.850;-2.246;2023-05-07T04:37:11;17.02;;;6.22;;
40717;SDS011;26405;51.850;-2.246;2023-05-07T04:39:36;16.60;;;6.18;;
40717;SDS011;26405;51.850;-2.246;2023-05-07T04:42:02;14.07;;;5.97;;
40717;SDS011;26405;51.850;-2.246;2023-05-07T04:44:28;13.30;;;6.10;;
40717;SDS011;26405;51.850;-2.246;2023-05-07T04:46:55;15.38;;;5.30;;
40717;SDS011;26405;51.850;-2.246;2023-05-07T04:49:21;14.35;;;5.78;;
40717;SDS011;26405;51.850;-2.246;2023-05-07T04:51:46;13.68;;;5.38;;
40717;SDS011;26405;51.850;-2.246;2023-05-07T04:54:11;15.15;;;6.35;;
40717;SDS011;26405;51.850;-2.246;2023-05-07T04:56:37;16.90;;;6.28;;
40717;SDS011;26405;51.850;-2.246;2023-05-07T04:59:02;14.60;;;6.07;;
40717;SDS011;26405;51.850;-2.246;2023-05-07T05:01:27;16.25;;;5.97;;
40717;SDS011;26405;51.850;-2.246;2023-05-07T05:03:52;12.85;;;5.22;;
40717;SDS011;26405;51.850;-2.246;2023-05-07T05:06:18;10.20;;;3.90;;
40717;SDS011;26405;51.850;-2.246;2023-05-07T05:08:43;9.35;;;3.40;;
40717;SDS011;26405;51.850;-2.246;2023-05-07T05:11:08;11.43;;;3.30;;
40717;SDS011;26405;51.850;-2.246;2023-05-07T05:13:33;14.70;;;3.65;;
40717;SDS011;26405;51.850;-2.246;2023-05-07T05:15:59;10.30;;;3.00;;
40717;SDS011;26405;51.850;-2.246;2023-05-07T05:18:24;7.55;;;3.28;;
40717;SDS011;26405;51.850;-2.246;2023-05-07T05:20:51;7.57;;;2.88;;
40717;SDS011;26405;51.850;-2.246;2023-05-07T05:23:16;6.70;;;2.80;;
40717;SDS011;26405;51.850;-2.246;2023-05-07T05:25:41;7.40;;;3.13;;
40717;SDS011;26405;51.850;-2.246;2023-05-07T05:28:07;9.43;;;2.80;;
40717;SDS011;26405;51.850;-2.246;2023-05-07T05:30:32;8.60;;;3.20;;
40717;SDS011;26405;51.850;-2.246;2023-05-07T05:32:57;6.97;;;2.83;;
40717;SDS011;26405;51.850;-2.246;2023-05-07T05:35:23;9.73;;;2.95;;
40717;SDS011;26405;51.850;-2.246;2023-05-07T05:37:48;8.32;;;2.92;;
40717;SDS011;26405;51.850;-2.246;2023-05-07T05:40:13;6.63;;;2.72;;
40717;SDS011;26405;51.850;-2.246;2023-05-07T05:42:39;6.55;;;2.70;;
40717;SDS011;26405;51.850;-2.246;2023-05-07T05:45:04;8.90;;;2.70;;
40717;SDS011;26405;51.850;-2.246;2023-05-07T05:47:30;7.82;;;2.78;;
40717;SDS011;26405;51.850;-2.246;2023-05-07T05:49:55;5.15;;;2.65;;
40717;SDS011;26405;51.850;-2.246;2023-05-07T05:52:21;9.25;;;2.90;;
40717;SDS011;26405;51.850;-2.246;2023-05-07T05:54:48;5.57;;;2.60;;
40717;SDS011;26405;51.850;-2.246;2023-05-07T05:57:14;7.43;;;2.45;;
40717;SDS011;26405;51.850;-2.246;2023-05-07T05:59:39;5.60;;;2.55;;
40717;SDS011;26405;51.850;-2.246;2023-05-07T06:02:04;6.93;;;2.83;;
40717;SDS011;26405;51.850;-2.246;2023-05-07T06:04:30;9.95;;;3.00;;
40717;SDS011;26405;51.850;-2.246;2023-05-07T06:06:55;8.27;;;2.67;;
40717;SDS011;26405;51.850;-2.246;2023-05-07T06:09:21;5.70;;;2.40;;
40717;SDS011;26405;51.850;-2.246;2023-05-07T06:11:47;7.95;;;2.47;;
40717;SDS011;26405;51.850;-2.246;2023-05-07T06:14:12;7.05;;;2.75;;
40717;SDS011;26405;51.850;-2.246;2023-05-07T06:16:37;6.07;;;2.40;;
40717;SDS011;26405;51.850;-2.246;2023-05-07T06:19:03;8.48;;;2.70;;
40717;SDS011;26405;51.850;-2.246;2023-05-07T06:21:28;7.85;;;2.70;;
40717;SDS011;26405;51.850;-2.246;2023-05-07T06:23:53;9.43;;;3.08;;
40717;SDS011;26405;51.850;-2.246;2023-05-07T06:26:20;9.27;;;2.97;;
40717;SDS011;26405;51.850;-2.246;2023-05-07T06:28:45;10.88;;;3.22;;
40717;SDS011;26405;51.850;-2.246;2023-05-07T06:31:15;9.38;;;3.10;;
40717;SDS011;26405;51.850;-2.246;2023-05-07T06:33:43;5.60;;;2.60;;
40717;SDS011;26405;51.850;-2.246;2023-05-07T06:36:08;8.43;;;3.08;;
40717;SDS011;26405;51.850;-2.246;2023-05-07T06:38:33;6.47;;;2.80;;
40717;SDS011;26405;51.850;-2.246;2023-05-07T06:40:59;10.35;;;2.72;;
40717;SDS011;26405;51.850;-2.246;2023-05-07T06:43:24;7.90;;;2.92;;
40717;SDS011;26405;51.850;-2.246;2023-05-07T06:45:49;11.35;;;3.00;;
40717;SDS011;26405;51.850;-2.246;2023-05-07T06:48:14;7.25;;;2.75;;
40717;SDS011;26405;51.850;-2.246;2023-05-07T06:50:41;7.20;;;2.72;;
40717;SDS011;26405;51.850;-2.246;2023-05-07T06:53:06;8.45;;;3.15;;
40717;SDS011;26405;51.850;-2.246;2023-05-07T06:55:31;12.23;;;3.28;;
40717;SDS011;26405;51.850;-2.246;2023-05-07T06:57:57;8.02;;;2.55;;
40717;SDS011;26405;51.850;-2.246;2023-05-07T07:00:26;6.43;;;2.72;;
40717;SDS011;26405;51.850;-2.246;2023-05-07T07:02:51;5.28;;;2.47;;
40717;SDS011;26405;51.850;-2.246;2023-05-07T07:05:16;5.10;;;2.60;;
40717;SDS011;26405;51.850;-2.246;2023-05-07T07:07:41;5.43;;;2.75;;
40717;SDS011;26405;51.850;-2.246;2023-05-07T07:10:07;9.40;;;2.80;;
40717;SDS011;26405;51.850;-2.246;2023-05-07T07:12:32;7.80;;;3.20;;
40717;SDS011;26405;51.850;-2.246;2023-05-07T07:14:57;9.32;;;2.90;;
40717;SDS011;26405;51.850;-2.246;2023-05-07T07:17:23;7.70;;;2.70;;
40717;SDS011;26405;51.850;-2.246;2023-05-07T07:19:48;10.02;;;2.75;;
40717;SDS011;26405;51.850;-2.246;2023-05-07T07:22:13;5.57;;;2.55;;
40717;SDS011;26405;51.850;-2.246;2023-05-07T07:24:39;7.03;;;2.35;;
40717;SDS011;26405;51.850;-2.246;2023-05-07T07:27:04;10.88;;;3.05;;
40717;SDS011;26405;51.850;-2.246;2023-05-07T07:29:29;9.70;;;2.97;;
40717;SDS011;26405;51.850;-2.246;2023-05-07T07:31:55;7.97;;;2.50;;
40717;SDS011;26405;51.850;-2.246;2023-05-07T07:34:20;6.67;;;2.87;;
40717;SDS011;26405;51.850;-2.246;2023-05-07T07:36:45;5.07;;;2.60;;
40717;SDS011;26405;51.850;-2.246;2023-05-07T07:39:11;8.80;;;2.85;;
40717;SDS011;26405;51.850;-2.246;2023-05-07T07:41:36;8.23;;;2.83;;
40717;SDS011;26405;51.850;-2.246;2023-05-07T07:44:02;7.90;;;2.83;;
40717;SDS011;26405;51.850;-2.246;2023-05-07T07:48:53;5.82;;;2.42;;
40717;SDS011;26405;51.850;-2.246;2023-05-07T07:51:19;9.43;;;2.38;;
40717;SDS011;26405;51.850;-2.246;2023-05-07T07:53:44;9.68;;;3.10;;
40717;SDS011;26405;51.850;-2.246;2023-05-07T07:56:09;6.50;;;2.75;;
40717;SDS011;26405;51.850;-2.246;2023-05-07T07:58:35;9.80;;;2.72;;
40717;SDS011;26405;51.850;-2.246;2023-05-07T08:01:01;6.78;;;3.10;;
40717;SDS011;26405;51.850;-2.246;2023-05-07T08:03:27;6.55;;;2.45;;
40717;SDS011;26405;51.850;-2.246;2023-05-07T08:05:53;9.63;;;2.70;;
40717;SDS011;26405;51.850;-2.246;2023-05-07T08:08:18;7.15;;;2.63;;
40717;SDS011;26405;51.850;-2.246;2023-05-07T08:10:43;8.33;;;2.53;;
40717;SDS011;26405;51.850;-2.246;2023-05-07T08:13:09;5.30;;;2.33;;
40717;SDS011;26405;51.850;-2.246;2023-05-07T08:15:35;10.90;;;2.73;;
40717;SDS011;26405;51.850;-2.246;2023-05-07T08:18:01;7.03;;;2.53;;
40717;SDS011;26405;51.850;-2.246;2023-05-07T08:20:27;9.88;;;2.75;;
40717;SDS011;26405;51.850;-2.246;2023-05-07T08:22:53;8.50;;;2.30;;
40717;SDS011;26405;51.850;-2.246;2023-05-07T08:25:18;7.10;;;2.33;;
40717;SDS011;26405;51.850;-2.246;2023-05-07T08:27:43;5.90;;;2.47;;
40717;SDS011;26405;51.850;-2.246;2023-05-07T08:30:10;8.00;;;2.47;;
40717;SDS011;26405;51.850;-2.246;2023-05-07T08:32:35;7.30;;;2.50;;
40717;SDS011;26405;51.850;-2.246;2023-05-07T08:35:00;7.80;;;2.78;;
40717;SDS011;26405;51.850;-2.246;2023-05-07T08:37:26;10.77;;;2.83;;
40717;SDS011;26405;51.850;-2.246;2023-05-07T08:39:51;6.90;;;2.50;;
40717;SDS011;26405;51.850;-2.246;2023-05-07T08:42:16;7.13;;;2.93;;
40717;SDS011;26405;51.850;-2.246;2023-05-07T08:44:43;12.02;;;2.90;;
40717;SDS011;26405;51.850;-2.246;2023-05-07T08:47:10;6.18;;;2.65;;
40717;SDS011;26405;51.850;-2.246;2023-05-07T08:49:36;6.60;;;2.67;;
40717;SDS011;26405;51.850;-2.246;2023-05-07T08:52:01;6.97;;;2.97;;
40717;SDS011;26405;51.850;-2.246;2023-05-07T08:54:26;7.13;;;2.90;;
40717;SDS011;26405;51.850;-2.246;2023-05-07T08:56:52;6.27;;;2.60;;
40717;SDS011;26405;51.850;-2.246;2023-05-07T08:59:18;6.20;;;2.63;;
40717;SDS011;26405;51.850;-2.246;2023-05-07T09:01:43;9.53;;;2.83;;
40717;SDS011;26405;51.850;-2.246;2023-05-07T09:04:08;10.57;;;2.80;;
40717;SDS011;26405;51.850;-2.246;2023-05-07T09:06:34;7.17;;;2.70;;
40717;SDS011;26405;51.850;-2.246;2023-05-07T09:09:00;7.73;;;3.00;;
40717;SDS011;26405;51.850;-2.246;2023-05-07T09:11:26;6.13;;;2.50;;
40717;SDS011;26405;51.850;-2.246;2023-05-07T09:13:53;6.43;;;3.00;;
40717;SDS011;26405;51.850;-2.246;2023-05-07T09:16:19;12.13;;;2.92;;
40717;SDS011;26405;51.850;-2.246;2023-05-07T09:18:45;8.13;;;2.83;;
40717;SDS011;26405;51.850;-2.246;2023-05-07T09:21:14;4.68;;;2.33;;
40717;SDS011;26405;51.850;-2.246;2023-05-07T09:23:39;8.55;;;2.60;;
40717;SDS011;26405;51.850;-2.246;2023-05-07T09:26:05;10.60;;;3.20;;
40717;SDS011;26405;51.850;-2.246;2023-05-07T09:28:37;8.40;;;2.90;;
40717;SDS011;26405;51.850;-2.246;2023-05-07T09:31:02;7.97;;;2.90;;
40717;SDS011;26405;51.850;-2.246;2023-05-07T09:33:28;9.17;;;3.43;;
40717;SDS011;26405;51.850;-2.246;2023-05-07T09:35:54;7.93;;;3.20;;
40717;SDS011;26405;51.850;-2.246;2023-05-07T09:38:20;10.47;;;3.43;;
40717;SDS011;26405;51.850;-2.246;2023-05-07T09:40:46;7.50;;;3.40;;
40717;SDS011;26405;51.850;-2.246;2023-05-07T09:43:12;7.50;;;2.97;;
40717;SDS011;26405;51.850;-2.246;2023-05-07T09:45:38;7.53;;;3.15;;
40717;SDS011;26405;51.850;-2.246;2023-05-07T09:48:04;8.83;;;3.00;;
40717;SDS011;26405;51.850;-2.246;2023-05-07T09:50:32;9.93;;;3.17;;
40717;SDS011;26405;51.850;-2.246;2023-05-07T09:53:01;8.25;;;3.15;;
40717;SDS011;26405;51.850;-2.246;2023-05-07T09:55:26;6.03;;;2.60;;
40717;SDS011;26405;51.850;-2.246;2023-05-07T09:57:52;6.90;;;2.97;;
40717;SDS011;26405;51.850;-2.246;2023-05-07T10:00:21;6.97;;;3.10;;
40717;SDS011;26405;51.850;-2.246;2023-05-07T10:02:47;6.43;;;2.70;;
40717;SDS011;26405;51.850;-2.246;2023-05-07T10:05:14;6.72;;;2.90;;
40717;SDS011;26405;51.850;-2.246;2023-05-07T10:07:40;6.60;;;2.77;;
40717;SDS011;26405;51.850;-2.246;2023-05-07T10:10:06;11.17;;;3.20;;
40717;SDS011;26405;51.850;-2.246;2023-05-07T10:12:31;7.93;;;2.73;;
40717;SDS011;26405;51.850;-2.246;2023-05-07T10:15:03;6.97;;;2.80;;
40717;SDS011;26405;51.850;-2.246;2023-05-07T10:17:28;7.22;;;2.88;;
40717;SDS011;26405;51.850;-2.246;2023-05-07T10:19:54;7.23;;;2.83;;
40717;SDS011;26405;51.850;-2.246;2023-05-07T10:22:19;7.50;;;3.00;;
40717;SDS011;26405;51.850;-2.246;2023-05-07T10:24:48;7.07;;;2.80;;
40717;SDS011;26405;51.850;-2.246;2023-05-07T10:27:17;5.82;;;2.60;;
40717;SDS011;26405;51.850;-2.246;2023-05-07T10:34:43;7.93;;;3.22;;
40717;SDS011;26405;51.850;-2.246;2023-05-07T10:39:34;8.75;;;3.42;;
40717;SDS011;26405;51.850;-2.246;2023-05-07T10:42:12;8.60;;;3.27;;
40717;SDS011;26405;51.850;-2.246;2023-05-07T10:44:38;6.97;;;3.53;;
40717;SDS011;26405;51.850;-2.246;2023-05-07T10:47:04;6.80;;;3.30;;
40717;SDS011;26405;51.850;-2.246;2023-05-07T10:49:29;8.20;;;3.17;;
40717;SDS011;26405;51.850;-2.246;2023-05-07T10:52:11;7.73;;;3.27;;
40717;SDS011;26405;51.850;-2.246;2023-05-07T10:54:38;8.73;;;3.42;;
40717;SDS011;26405;51.850;-2.246;2023-05-07T10:59:47;13.25;;;4.25;;
40717;SDS011;26405;51.850;-2.246;2023-05-07T11:02:13;7.83;;;3.50;;
40717;SDS011;26405;51.850;-2.246;2023-05-07T11:04:40;12.38;;;3.80;;
40717;SDS011;26405;51.850;-2.246;2023-05-07T11:12:19;9.15;;;3.58;;
40717;SDS011;26405;51.850;-2.246;2023-05-07T11:15:04;6.57;;;3.28;;
40717;SDS011;26405;51.850;-2.246;2023-05-07T11:17:30;10.00;;;3.42;;
40717;SDS011;26405;51.850;-2.246;2023-05-07T11:19:59;7.18;;;3.05;;
40717;SDS011;26405;51.850;-2.246;2023-05-07T11:24:57;9.27;;;3.40;;
40717;SDS011;26405;51.850;-2.246;2023-05-07T11:27:24;6.57;;;3.20;;
40717;SDS011;26405;51.850;-2.246;2023-05-07T11:29:49;9.57;;;3.20;;
40717;SDS011;26405;51.850;-2.246;2023-05-07T11:32:15;8.03;;;3.33;;
40717;SDS011;26405;51.850;-2.246;2023-05-07T11:34:41;8.53;;;3.47;;
40717;SDS011;26405;51.850;-2.246;2023-05-07T11:37:09;10.30;;;3.77;;
40717;SDS011;26405;51.850;-2.246;2023-05-07T11:39:34;7.85;;;3.25;;
40717;SDS011;26405;51.850;-2.246;2023-05-07T11:42:01;6.85;;;3.20;;
40717;SDS011;26405;51.850;-2.246;2023-05-07T11:44:42;6.07;;;3.00;;
40717;SDS011;26405;51.850;-2.246;2023-05-07T11:47:08;7.93;;;2.92;;
40717;SDS011;26405;51.850;-2.246;2023-05-07T11:49:34;6.30;;;3.00;;
40717;SDS011;26405;51.850;-2.246;2023-05-07T11:51:59;7.40;;;3.15;;
40717;SDS011;26405;51.850;-2.246;2023-05-07T11:54:24;5.60;;;2.50;;
40717;SDS011;26405;51.850;-2.246;2023-05-07T11:56:50;5.03;;;2.80;;
40717;SDS011;26405;51.850;-2.246;2023-05-07T11:59:18;7.27;;;2.90;;
40717;SDS011;26405;51.850;-2.246;2023-05-07T12:01:47;7.25;;;2.80;;
40717;SDS011;26405;51.850;-2.246;2023-05-07T12:04:12;4.95;;;2.60;;
40717;SDS011;26405;51.850;-2.246;2023-05-07T12:06:38;5.93;;;2.73;;
40717;SDS011;26405;51.850;-2.246;2023-05-07T12:09:04;8.07;;;2.85;;
40717;SDS011;26405;51.850;-2.246;2023-05-07T12:11:32;6.45;;;2.70;;
40717;SDS011;26405;51.850;-2.246;2023-05-07T12:13:57;6.47;;;2.77;;
40717;SDS011;26405;51.850;-2.246;2023-05-07T12:16:22;8.40;;;2.63;;
40717;SDS011;26405;51.850;-2.246;2023-05-07T12:18:48;9.83;;;3.00;;
40717;SDS011;26405;51.850;-2.246;2023-05-07T12:21:13;8.00;;;2.50;;
40717;SDS011;26405;51.850;-2.246;2023-05-07T12:23:39;5.10;;;2.50;;
40717;SDS011;26405;51.850;-2.246;2023-05-07T12:26:04;5.40;;;2.50;;
40717;SDS011;26405;51.850;-2.246;2023-05-07T12:28:31;6.97;;;2.90;;
40717;SDS011;26405;51.850;-2.246;2023-05-07T12:30:56;7.15;;;2.60;;
40717;SDS011;26405;51.850;-2.246;2023-05-07T12:33:25;8.10;;;2.70;;
40717;SDS011;26405;51.850;-2.246;2023-05-07T12:35:50;5.70;;;2.42;;
40717;SDS011;26405;51.850;-2.246;2023-05-07T12:38:17;8.50;;;2.65;;
40717;SDS011;26405;51.850;-2.246;2023-05-07T12:40:44;14.80;;;2.80;;
40717;SDS011;26405;51.850;-2.246;2023-05-07T12:43:20;7.97;;;2.53;;
40717;SDS011;26405;51.850;-2.246;2023-05-07T12:45:48;6.90;;;2.60;;
40717;SDS011;26405;51.850;-2.246;2023-05-07T12:48:14;9.20;;;2.67;;
40717;SDS011;26405;51.850;-2.246;2023-05-07T12:50:39;6.53;;;3.00;;
40717;SDS011;26405;51.850;-2.246;2023-05-07T12:53:05;7.97;;;2.63;;
40717;SDS011;26405;51.850;-2.246;2023-05-07T12:55:34;5.78;;;2.65;;
40717;SDS011;26405;51.850;-2.246;2023-05-07T12:58:05;8.75;;;2.58;;
40717;SDS011;26405;51.850;-2.246;2023-05-07T13:00:36;5.90;;;2.60;;
40717;SDS011;26405;51.850;-2.246;2023-05-07T13:03:02;9.88;;;2.78;;
40717;SDS011;26405;51.850;-2.246;2023-05-07T13:05:27;6.23;;;2.63;;
40717;SDS011;26405;51.850;-2.246;2023-05-07T13:07:56;8.37;;;2.60;;
40717;SDS011;26405;51.850;-2.246;2023-05-07T13:10:21;10.85;;;2.83;;
40717;SDS011;26405;51.850;-2.246;2023-05-07T13:12:47;5.80;;;2.50;;
40717;SDS011;26405;51.850;-2.246;2023-05-07T13:15:12;7.80;;;2.60;;
40717;SDS011;26405;51.850;-2.246;2023-05-07T13:17:37;8.47;;;2.77;;
40717;SDS011;26405;51.850;-2.246;2023-05-07T13:20:03;7.37;;;2.57;;
40717;SDS011;26405;51.850;-2.246;2023-05-07T13:22:28;7.07;;;2.80;;
40717;SDS011;26405;51.850;-2.246;2023-05-07T13:24:54;9.13;;;2.50;;
40717;SDS011;26405;51.850;-2.246;2023-05-07T13:27:19;9.77;;;3.17;;
40717;SDS011;26405;51.850;-2.246;2023-05-07T13:29:45;4.17;;;2.40;;
40717;SDS011;26405;51.850;-2.246;2023-05-07T13:32:10;5.50;;;2.60;;
40717;SDS011;26405;51.850;-2.246;2023-05-07T13:34:35;8.00;;;2.80;;
40717;SDS011;26405;51.850;-2.246;2023-05-07T13:37:01;6.03;;;2.60;;
40717;SDS011;26405;51.850;-2.246;2023-05-07T13:39:27;6.67;;;2.67;;
40717;SDS011;26405;51.850;-2.246;2023-05-07T13:41:52;9.23;;;2.63;;
40717;SDS011;26405;51.850;-2.246;2023-05-07T13:44:17;7.20;;;2.47;;
40717;SDS011;26405;51.850;-2.246;2023-05-07T13:46:42;6.83;;;2.50;;
40717;SDS011;26405;51.850;-2.246;2023-05-07T13:49:08;7.27;;;2.60;;
40717;SDS011;26405;51.850;-2.246;2023-05-07T13:51:36;7.82;;;2.75;;
40717;SDS011;26405;51.850;-2.246;2023-05-07T13:54:01;5.30;;;2.40;;
40717;SDS011;26405;51.850;-2.246;2023-05-07T13:56:26;8.23;;;3.17;;
40717;SDS011;26405;51.850;-2.246;2023-05-07T14:01:18;9.85;;;2.83;;
40717;SDS011;26405;51.850;-2.246;2023-05-07T14:03:43;6.60;;;2.47;;
40717;SDS011;26405;51.850;-2.246;2023-05-07T14:06:09;8.70;;;2.50;;
40717;SDS011;26405;51.850;-2.246;2023-05-07T14:08:34;8.93;;;3.27;;
40717;SDS011;26405;51.850;-2.246;2023-05-07T14:10:59;6.83;;;2.87;;
40717;SDS011;26405;51.850;-2.246;2023-05-07T14:13:25;11.60;;;3.50;;
40717;SDS011;26405;51.850;-2.246;2023-05-07T14:15:50;9.70;;;3.10;;
40717;SDS011;26405;51.850;-2.246;2023-05-07T14:18:16;13.47;;;4.30;;
40717;SDS011;26405;51.850;-2.246;2023-05-07T14:20:41;11.07;;;4.20;;
40717;SDS011;26405;51.850;-2.246;2023-05-07T14:23:08;11.00;;;4.10;;
40717;SDS011;26405;51.850;-2.246;2023-05-07T14:25:33;9.87;;;3.90;;
40717;SDS011;26405;51.850;-2.246;2023-05-07T14:27:59;12.97;;;4.30;;
40717;SDS011;26405;51.850;-2.246;2023-05-07T14:30:24;8.43;;;3.83;;
40717;SDS011;26405;51.850;-2.246;2023-05-07T14:32:49;30.47;;;25.00;;
40717;SDS011;26405;51.850;-2.246;2023-05-07T14:35:15;20.83;;;12.73;;
40717;SDS011;26405;51.850;-2.246;2023-05-07T14:37:40;30.93;;;24.27;;
40717;SDS011;26405;51.850;-2.246;2023-05-07T14:40:05;46.20;;;36.93;;
40717;SDS011;26405;51.850;-2.246;2023-05-07T14:42:31;60.07;;;53.57;;
40717;SDS011;26405;51.850;-2.246;2023-05-07T14:44:56;24.60;;;15.40;;
40717;SDS011;26405;51.850;-2.246;2023-05-07T14:47:21;25.63;;;16.83;;
40717;SDS011;26405;51.850;-2.246;2023-05-07T14:49:47;24.47;;;15.33;;